sensor_id;sensor_type;location;lat;lon;timestamp;P1;durP1;ratioP1;P2;durP2;ratioP2
13584;SDS011;6863;48.402;9.994;2024-03-07T00:01:54;30.27;;;21.30;;
13584;SDS011;6863;48.402;9.994;2024-03-07T00:04:20;28.33;;;21.13;;
13584;SDS011;6863;48.402;9.994;2024-03-07T00:06:45;32.10;;;22.77;;
13584;SDS011;6863;48.402;9.994;2024-03-07T00:09:11;31.60;;;22.73;;
13584;SDS011;6863;48.402;9.994;2024-03-07T00:11:37;28.77;;;21.90;;
13584;SDS011;6863;48.402;9.994;2024-03-07T00:14:03;30.87;;;22.67;;
13584;SDS011;6863;48.402;9.994;2024-03-07T00:16:31;30.47;;;22.27;;
13584;SDS011;6863;48.402;9.994;2024-03-07T00:18:58;31.23;;;22.07;;
13584;SDS011;6863;48.402;9.994;2024-03-07T00:21:25;32.83;;;21.83;;
13584;SDS011;6863;48.402;9.994;2024-03-07T00:23:51;30.67;;;23.17;;
13584;SDS011;6863;48.402;9.994;2024-03-07T00:26:17;32.93;;;23.57;;
13584;SDS011;6863;48.402;9.994;2024-03-07T00:28:43;31.53;;;23.57;;
13584;SDS011;6863;48.402;9.994;2024-03-07T00:31:08;32.83;;;24.10;;
13584;SDS011;6863;48.402;9.994;2024-03-07T00:33:34;30.77;;;22.63;;
13584;SDS011;6863;48.402;9.994;2024-03-07T00:36:00;34.33;;;23.97;;
13584;SDS011;6863;48.402;9.994;2024-03-07T00:38:25;33.70;;;24.43;;
13584;SDS011;6863;48.402;9.994;2024-03-07T00:40:51;35.07;;;23.63;;
13584;SDS011;6863;48.402;9.994;2024-03-07T00:43:16;36.97;;;25.17;;
13584;SDS011;6863;48.402;9.994;2024-03-07T00:45:42;30.10;;;22.70;;
13584;SDS011;6863;48.402;9.994;2024-03-07T00:48:08;34.33;;;25.23;;
13584;SDS011;6863;48.402;9.994;2024-03-07T00:50:34;34.50;;;24.23;;
13584;SDS011;6863;48.402;9.994;2024-03-07T00:52:59;36.40;;;25.63;;
13584;SDS011;6863;48.402;9.994;2024-03-07T00:55:25;35.63;;;24.00;;
13584;SDS011;6863;48.402;9.994;2024-03-07T00:57:51;35.23;;;25.33;;
13584;SDS011;6863;48.402;9.994;2024-03-07T01:00:16;32.07;;;24.50;;
13584;SDS011;6863;48.402;9.994;2024-03-07T01:02:46;34.67;;;25.00;;
13584;SDS011;6863;48.402;9.994;2024-03-07T01:05:12;33.00;;;24.67;;
13584;SDS011;6863;48.402;9.994;2024-03-07T01:07:42;31.83;;;23.07;;
13584;SDS011;6863;48.402;9.994;2024-03-07T01:10:09;37.23;;;25.90;;
13584;SDS011;6863;48.402;9.994;2024-03-07T01:12:35;36.40;;;27.00;;
13584;SDS011;6863;48.402;9.994;2024-03-07T01:15:01;36.60;;;25.60;;
13584;SDS011;6863;48.402;9.994;2024-03-07T01:17:29;36.47;;;26.50;;
13584;SDS011;6863;48.402;9.994;2024-03-07T01:19:54;37.13;;;26.00;;
13584;SDS011;6863;48.402;9.994;2024-03-07T01:22:20;35.80;;;25.53;;
13584;SDS011;6863;48.402;9.994;2024-03-07T01:24:47;37.60;;;26.20;;
13584;SDS011;6863;48.402;9.994;2024-03-07T01:27:13;37.90;;;26.17;;
13584;SDS011;6863;48.402;9.994;2024-03-07T01:29:38;35.73;;;26.97;;
13584;SDS011;6863;48.402;9.994;2024-03-07T01:34:31;34.03;;;27.10;;
13584;SDS011;6863;48.402;9.994;2024-03-07T01:36:57;37.97;;;26.03;;
13584;SDS011;6863;48.402;9.994;2024-03-07T01:39:22;38.20;;;27.93;;
13584;SDS011;6863;48.402;9.994;2024-03-07T01:41:48;37.50;;;27.43;;
13584;SDS011;6863;48.402;9.994;2024-03-07T01:44:14;37.33;;;26.77;;
13584;SDS011;6863;48.402;9.994;2024-03-07T01:46:40;34.87;;;26.43;;
13584;SDS011;6863;48.402;9.994;2024-03-07T01:49:08;37.83;;;27.20;;
13584;SDS011;6863;48.402;9.994;2024-03-07T01:51:35;36.57;;;27.17;;
13584;SDS011;6863;48.402;9.994;2024-03-07T01:54:02;36.77;;;26.97;;
13584;SDS011;6863;48.402;9.994;2024-03-07T01:56:28;40.53;;;27.73;;
13584;SDS011;6863;48.402;9.994;2024-03-07T01:58:54;40.30;;;27.80;;
13584;SDS011;6863;48.402;9.994;2024-03-07T02:01:20;41.30;;;29.47;;
13584;SDS011;6863;48.402;9.994;2024-03-07T02:03:46;37.23;;;26.93;;
13584;SDS011;6863;48.402;9.994;2024-03-07T02:06:11;37.97;;;27.73;;
13584;SDS011;6863;48.402;9.994;2024-03-07T02:08:38;39.97;;;28.27;;
13584;SDS011;6863;48.402;9.994;2024-03-07T02:11:04;39.20;;;28.07;;
13584;SDS011;6863;48.402;9.994;2024-03-07T02:13:30;40.50;;;29.30;;
13584;SDS011;6863;48.402;9.994;2024-03-07T02:15:56;40.37;;;28.53;;
13584;SDS011;6863;48.402;9.994;2024-03-07T02:18:22;41.33;;;29.23;;
13584;SDS011;6863;48.402;9.994;2024-03-07T02:20:48;39.70;;;29.13;;
13584;SDS011;6863;48.402;9.994;2024-03-07T02:23:14;40.43;;;29.23;;
13584;SDS011;6863;48.402;9.994;2024-03-07T02:25:40;41.70;;;28.33;;
13584;SDS011;6863;48.402;9.994;2024-03-07T02:28:05;39.30;;;28.33;;
13584;SDS011;6863;48.402;9.994;2024-03-07T02:30:31;38.97;;;28.23;;
13584;SDS011;6863;48.402;9.994;2024-03-07T02:32:58;44.33;;;29.83;;
13584;SDS011;6863;48.402;9.994;2024-03-07T02:35:31;40.80;;;29.17;;
13584;SDS011;6863;48.402;9.994;2024-03-07T02:38:03;41.30;;;28.03;;
13584;SDS011;6863;48.402;9.994;2024-03-07T02:40:29;44.43;;;30.27;;
13584;SDS011;6863;48.402;9.994;2024-03-07T02:42:55;43.37;;;31.37;;
13584;SDS011;6863;48.402;9.994;2024-03-07T02:45:21;40.63;;;30.17;;
13584;SDS011;6863;48.402;9.994;2024-03-07T02:47:46;43.57;;;30.03;;
13584;SDS011;6863;48.402;9.994;2024-03-07T02:50:12;45.27;;;30.80;;
13584;SDS011;6863;48.402;9.994;2024-03-07T02:52:38;44.97;;;30.27;;
13584;SDS011;6863;48.402;9.994;2024-03-07T02:55:04;44.07;;;30.70;;
13584;SDS011;6863;48.402;9.994;2024-03-07T02:57:30;43.17;;;29.97;;
13584;SDS011;6863;48.402;9.994;2024-03-07T02:59:56;46.23;;;31.60;;
13584;SDS011;6863;48.402;9.994;2024-03-07T03:02:22;44.03;;;32.03;;
13584;SDS011;6863;48.402;9.994;2024-03-07T03:04:48;45.87;;;32.60;;
13584;SDS011;6863;48.402;9.994;2024-03-07T03:07:13;47.23;;;31.83;;
13584;SDS011;6863;48.402;9.994;2024-03-07T03:09:39;47.40;;;31.97;;
13584;SDS011;6863;48.402;9.994;2024-03-07T03:12:08;47.20;;;32.73;;
13584;SDS011;6863;48.402;9.994;2024-03-07T03:14:34;45.30;;;30.93;;
13584;SDS011;6863;48.402;9.994;2024-03-07T03:16:59;44.47;;;32.13;;
13584;SDS011;6863;48.402;9.994;2024-03-07T03:19:25;51.70;;;32.70;;
13584;SDS011;6863;48.402;9.994;2024-03-07T03:21:51;43.27;;;30.70;;
13584;SDS011;6863;48.402;9.994;2024-03-07T03:24:17;47.10;;;31.77;;
13584;SDS011;6863;48.402;9.994;2024-03-07T03:26:43;45.93;;;30.63;;
13584;SDS011;6863;48.402;9.994;2024-03-07T03:29:09;41.90;;;31.23;;
13584;SDS011;6863;48.402;9.994;2024-03-07T03:31:36;45.60;;;33.73;;
13584;SDS011;6863;48.402;9.994;2024-03-07T03:34:02;47.03;;;33.23;;
13584;SDS011;6863;48.402;9.994;2024-03-07T03:36:27;50.57;;;33.80;;
13584;SDS011;6863;48.402;9.994;2024-03-07T03:38:54;47.90;;;33.20;;
13584;SDS011;6863;48.402;9.994;2024-03-07T03:41:20;47.23;;;34.63;;
13584;SDS011;6863;48.402;9.994;2024-03-07T03:43:45;48.60;;;33.63;;
13584;SDS011;6863;48.402;9.994;2024-03-07T03:46:12;50.23;;;33.70;;
13584;SDS011;6863;48.402;9.994;2024-03-07T03:48:41;48.37;;;33.73;;
13584;SDS011;6863;48.402;9.994;2024-03-07T03:51:07;48.37;;;33.37;;
13584;SDS011;6863;48.402;9.994;2024-03-07T03:53:33;48.00;;;33.37;;
13584;SDS011;6863;48.402;9.994;2024-03-07T03:55:59;50.43;;;34.23;;
13584;SDS011;6863;48.402;9.994;2024-03-07T03:58:25;50.73;;;34.23;;
13584;SDS011;6863;48.402;9.994;2024-03-07T04:00:50;50.73;;;35.33;;
13584;SDS011;6863;48.402;9.994;2024-03-07T04:03:16;50.00;;;34.03;;
13584;SDS011;6863;48.402;9.994;2024-03-07T04:05:42;48.63;;;33.43;;
13584;SDS011;6863;48.402;9.994;2024-03-07T04:08:08;54.37;;;35.43;;
13584;SDS011;6863;48.402;9.994;2024-03-07T04:10:34;45.37;;;32.83;;
13584;SDS011;6863;48.402;9.994;2024-03-07T04:13:00;44.67;;;33.47;;
13584;SDS011;6863;48.402;9.994;2024-03-07T04:15:25;48.90;;;34.83;;
13584;SDS011;6863;48.402;9.994;2024-03-07T04:17:52;49.83;;;34.47;;
13584;SDS011;6863;48.402;9.994;2024-03-07T04:20:18;46.67;;;33.87;;
13584;SDS011;6863;48.402;9.994;2024-03-07T04:22:44;46.77;;;33.83;;
13584;SDS011;6863;48.402;9.994;2024-03-07T04:25:09;49.90;;;32.87;;
13584;SDS011;6863;48.402;9.994;2024-03-07T04:27:35;44.10;;;32.23;;
13584;SDS011;6863;48.402;9.994;2024-03-07T04:30:05;46.33;;;33.03;;
13584;SDS011;6863;48.402;9.994;2024-03-07T04:32:31;47.93;;;34.00;;
13584;SDS011;6863;48.402;9.994;2024-03-07T04:34:59;49.53;;;33.03;;
13584;SDS011;6863;48.402;9.994;2024-03-07T04:37:25;47.10;;;33.43;;
13584;SDS011;6863;48.402;9.994;2024-03-07T04:39:52;46.47;;;33.13;;
13584;SDS011;6863;48.402;9.994;2024-03-07T04:42:18;49.03;;;33.57;;
13584;SDS011;6863;48.402;9.994;2024-03-07T04:44:43;40.83;;;30.90;;
13584;SDS011;6863;48.402;9.994;2024-03-07T04:47:09;45.30;;;32.20;;
13584;SDS011;6863;48.402;9.994;2024-03-07T04:49:35;42.87;;;31.47;;
13584;SDS011;6863;48.402;9.994;2024-03-07T04:52:01;46.20;;;31.87;;
13584;SDS011;6863;48.402;9.994;2024-03-07T04:54:28;48.77;;;32.87;;
13584;SDS011;6863;48.402;9.994;2024-03-07T04:56:55;45.10;;;31.87;;
13584;SDS011;6863;48.402;9.994;2024-03-07T04:59:21;43.57;;;30.63;;
13584;SDS011;6863;48.402;9.994;2024-03-07T05:01:48;43.70;;;31.47;;
13584;SDS011;6863;48.402;9.994;2024-03-07T05:04:15;42.67;;;29.77;;
13584;SDS011;6863;48.402;9.994;2024-03-07T05:06:41;42.47;;;30.77;;
13584;SDS011;6863;48.402;9.994;2024-03-07T05:09:08;44.63;;;31.13;;
13584;SDS011;6863;48.402;9.994;2024-03-07T05:11:35;43.33;;;30.83;;
13584;SDS011;6863;48.402;9.994;2024-03-07T05:14:02;41.50;;;29.83;;
13584;SDS011;6863;48.402;9.994;2024-03-07T05:16:28;45.50;;;31.10;;
13584;SDS011;6863;48.402;9.994;2024-03-07T05:18:55;40.73;;;28.93;;
13584;SDS011;6863;48.402;9.994;2024-03-07T05:21:24;41.87;;;30.23;;
13584;SDS011;6863;48.402;9.994;2024-03-07T05:23:59;40.47;;;28.70;;
13584;SDS011;6863;48.402;9.994;2024-03-07T05:26:30;42.23;;;30.40;;
13584;SDS011;6863;48.402;9.994;2024-03-07T05:29:02;38.93;;;29.33;;
13584;SDS011;6863;48.402;9.994;2024-03-07T05:31:38;47.10;;;30.93;;
13584;SDS011;6863;48.402;9.994;2024-03-07T05:34:10;48.23;;;31.07;;
13584;SDS011;6863;48.402;9.994;2024-03-07T05:36:37;42.90;;;31.00;;
13584;SDS011;6863;48.402;9.994;2024-03-07T05:39:11;42.33;;;30.80;;
13584;SDS011;6863;48.402;9.994;2024-03-07T05:41:37;46.20;;;30.60;;
13584;SDS011;6863;48.402;9.994;2024-03-07T05:44:07;43.40;;;31.23;;
13584;SDS011;6863;48.402;9.994;2024-03-07T05:46:36;40.93;;;29.07;;
13584;SDS011;6863;48.402;9.994;2024-03-07T05:49:06;39.07;;;29.27;;
13584;SDS011;6863;48.402;9.994;2024-03-07T05:51:35;40.63;;;28.97;;
13584;SDS011;6863;48.402;9.994;2024-03-07T05:54:00;39.67;;;28.80;;
13584;SDS011;6863;48.402;9.994;2024-03-07T05:56:26;40.43;;;30.17;;
13584;SDS011;6863;48.402;9.994;2024-03-07T05:58:52;44.47;;;31.07;;
13584;SDS011;6863;48.402;9.994;2024-03-07T06:01:17;39.50;;;30.23;;
13584;SDS011;6863;48.402;9.994;2024-03-07T06:03:43;40.03;;;29.87;;
13584;SDS011;6863;48.402;9.994;2024-03-07T06:06:10;42.13;;;30.00;;
13584;SDS011;6863;48.402;9.994;2024-03-07T06:08:38;42.93;;;28.73;;
13584;SDS011;6863;48.402;9.994;2024-03-07T06:11:07;44.13;;;31.03;;
13584;SDS011;6863;48.402;9.994;2024-03-07T06:13:33;45.80;;;30.63;;
13584;SDS011;6863;48.402;9.994;2024-03-07T06:15:58;38.93;;;28.10;;
13584;SDS011;6863;48.402;9.994;2024-03-07T06:18:29;39.80;;;28.67;;
13584;SDS011;6863;48.402;9.994;2024-03-07T06:20:56;39.83;;;28.63;;
13584;SDS011;6863;48.402;9.994;2024-03-07T06:23:23;39.20;;;28.57;;
13584;SDS011;6863;48.402;9.994;2024-03-07T06:25:50;40.07;;;28.67;;
13584;SDS011;6863;48.402;9.994;2024-03-07T06:28:19;40.03;;;29.13;;
13584;SDS011;6863;48.402;9.994;2024-03-07T06:30:45;44.07;;;29.07;;
13584;SDS011;6863;48.402;9.994;2024-03-07T06:33:14;41.23;;;29.10;;
13584;SDS011;6863;48.402;9.994;2024-03-07T06:35:43;38.93;;;27.63;;
13584;SDS011;6863;48.402;9.994;2024-03-07T06:38:09;41.90;;;30.27;;
13584;SDS011;6863;48.402;9.994;2024-03-07T06:40:35;40.83;;;28.63;;
13584;SDS011;6863;48.402;9.994;2024-03-07T06:43:02;40.50;;;29.07;;
13584;SDS011;6863;48.402;9.994;2024-03-07T06:45:37;39.80;;;28.90;;
13584;SDS011;6863;48.402;9.994;2024-03-07T06:48:04;37.83;;;28.90;;
13584;SDS011;6863;48.402;9.994;2024-03-07T06:50:41;42.43;;;29.27;;
13584;SDS011;6863;48.402;9.994;2024-03-07T06:53:17;40.43;;;27.63;;
13584;SDS011;6863;48.402;9.994;2024-03-07T06:55:43;42.40;;;28.70;;
13584;SDS011;6863;48.402;9.994;2024-03-07T06:58:08;36.77;;;27.47;;
13584;SDS011;6863;48.402;9.994;2024-03-07T07:00:35;36.70;;;27.70;;
13584;SDS011;6863;48.402;9.994;2024-03-07T07:03:01;38.50;;;28.70;;
13584;SDS011;6863;48.402;9.994;2024-03-07T07:05:28;40.13;;;30.17;;
13584;SDS011;6863;48.402;9.994;2024-03-07T07:07:55;39.97;;;29.17;;
13584;SDS011;6863;48.402;9.994;2024-03-07T07:10:20;38.37;;;28.50;;
13584;SDS011;6863;48.402;9.994;2024-03-07T07:12:49;40.53;;;28.07;;
13584;SDS011;6863;48.402;9.994;2024-03-07T07:15:15;39.30;;;28.77;;
13584;SDS011;6863;48.402;9.994;2024-03-07T07:17:43;37.57;;;27.67;;
13584;SDS011;6863;48.402;9.994;2024-03-07T07:20:12;42.20;;;29.50;;
13584;SDS011;6863;48.402;9.994;2024-03-07T07:22:41;38.07;;;30.17;;
13584;SDS011;6863;48.402;9.994;2024-03-07T07:25:10;37.30;;;26.77;;
13584;SDS011;6863;48.402;9.994;2024-03-07T07:27:43;40.57;;;29.77;;
13584;SDS011;6863;48.402;9.994;2024-03-07T07:30:10;38.93;;;28.13;;
13584;SDS011;6863;48.402;9.994;2024-03-07T07:32:37;37.40;;;27.67;;
13584;SDS011;6863;48.402;9.994;2024-03-07T07:35:04;39.43;;;28.87;;
13584;SDS011;6863;48.402;9.994;2024-03-07T07:37:34;37.23;;;27.47;;
13584;SDS011;6863;48.402;9.994;2024-03-07T07:40:01;38.50;;;28.33;;
13584;SDS011;6863;48.402;9.994;2024-03-07T07:42:28;36.43;;;27.30;;
13584;SDS011;6863;48.402;9.994;2024-03-07T07:44:53;41.83;;;28.60;;
13584;SDS011;6863;48.402;9.994;2024-03-07T07:47:19;40.07;;;28.47;;
13584;SDS011;6863;48.402;9.994;2024-03-07T07:49:45;39.03;;;29.67;;
13584;SDS011;6863;48.402;9.994;2024-03-07T07:52:10;38.47;;;28.43;;
13584;SDS011;6863;48.402;9.994;2024-03-07T07:54:40;39.60;;;27.93;;
13584;SDS011;6863;48.402;9.994;2024-03-07T07:57:07;38.83;;;27.63;;
13584;SDS011;6863;48.402;9.994;2024-03-07T07:59:32;39.10;;;28.30;;
13584;SDS011;6863;48.402;9.994;2024-03-07T08:01:58;37.80;;;28.50;;
13584;SDS011;6863;48.402;9.994;2024-03-07T08:04:23;39.87;;;28.23;;
13584;SDS011;6863;48.402;9.994;2024-03-07T08:06:49;42.13;;;28.30;;
13584;SDS011;6863;48.402;9.994;2024-03-07T08:09:14;41.23;;;30.03;;
13584;SDS011;6863;48.402;9.994;2024-03-07T08:11:41;39.30;;;28.90;;
13584;SDS011;6863;48.402;9.994;2024-03-07T08:14:07;35.00;;;28.43;;
13584;SDS011;6863;48.402;9.994;2024-03-07T08:16:33;37.73;;;28.60;;
13584;SDS011;6863;48.402;9.994;2024-03-07T08:18:58;40.17;;;29.13;;
13584;SDS011;6863;48.402;9.994;2024-03-07T08:21:24;38.40;;;29.43;;
13584;SDS011;6863;48.402;9.994;2024-03-07T08:23:50;38.17;;;29.80;;
13584;SDS011;6863;48.402;9.994;2024-03-07T08:26:15;38.67;;;29.33;;
13584;SDS011;6863;48.402;9.994;2024-03-07T08:28:41;40.93;;;31.50;;
13584;SDS011;6863;48.402;9.994;2024-03-07T08:31:06;44.17;;;33.93;;
13584;SDS011;6863;48.402;9.994;2024-03-07T08:33:34;43.13;;;32.13;;
13584;SDS011;6863;48.402;9.994;2024-03-07T08:36:00;39.87;;;30.33;;
13584;SDS011;6863;48.402;9.994;2024-03-07T08:38:25;37.80;;;29.57;;
13584;SDS011;6863;48.402;9.994;2024-03-07T08:40:51;39.03;;;30.10;;
13584;SDS011;6863;48.402;9.994;2024-03-07T08:43:17;40.03;;;28.80;;
13584;SDS011;6863;48.402;9.994;2024-03-07T08:45:43;38.33;;;28.07;;
13584;SDS011;6863;48.402;9.994;2024-03-07T08:48:09;41.30;;;31.50;;
13584;SDS011;6863;48.402;9.994;2024-03-07T08:50:38;43.13;;;30.67;;
13584;SDS011;6863;48.402;9.994;2024-03-07T08:53:04;46.90;;;31.50;;
13584;SDS011;6863;48.402;9.994;2024-03-07T08:55:31;48.57;;;32.07;;
13584;SDS011;6863;48.402;9.994;2024-03-07T08:57:59;44.03;;;31.30;;
13584;SDS011;6863;48.402;9.994;2024-03-07T09:00:28;46.60;;;31.43;;
13584;SDS011;6863;48.402;9.994;2024-03-07T09:02:55;38.73;;;30.83;;
13584;SDS011;6863;48.402;9.994;2024-03-07T09:05:28;43.00;;;30.43;;
13584;SDS011;6863;48.402;9.994;2024-03-07T09:07:54;40.60;;;30.30;;
13584;SDS011;6863;48.402;9.994;2024-03-07T09:10:21;42.17;;;32.30;;
13584;SDS011;6863;48.402;9.994;2024-03-07T09:12:49;43.30;;;32.23;;
13584;SDS011;6863;48.402;9.994;2024-03-07T09:15:16;39.47;;;30.83;;
13584;SDS011;6863;48.402;9.994;2024-03-07T09:17:44;40.27;;;29.97;;
13584;SDS011;6863;48.402;9.994;2024-03-07T09:20:10;46.93;;;31.90;;
13584;SDS011;6863;48.402;9.994;2024-03-07T09:22:40;40.07;;;29.33;;
13584;SDS011;6863;48.402;9.994;2024-03-07T09:25:06;42.83;;;30.57;;
13584;SDS011;6863;48.402;9.994;2024-03-07T09:27:33;42.13;;;30.23;;
13584;SDS011;6863;48.402;9.994;2024-03-07T09:29:58;43.07;;;31.63;;
13584;SDS011;6863;48.402;9.994;2024-03-07T09:32:24;46.40;;;33.40;;
13584;SDS011;6863;48.402;9.994;2024-03-07T09:34:49;41.93;;;32.10;;
13584;SDS011;6863;48.402;9.994;2024-03-07T09:37:15;43.87;;;30.93;;
13584;SDS011;6863;48.402;9.994;2024-03-07T09:39:41;46.27;;;33.67;;
13584;SDS011;6863;48.402;9.994;2024-03-07T09:42:09;45.83;;;33.37;;
13584;SDS011;6863;48.402;9.994;2024-03-07T09:44:40;41.83;;;32.10;;
13584;SDS011;6863;48.402;9.994;2024-03-07T09:47:08;38.67;;;31.53;;
13584;SDS011;6863;48.402;9.994;2024-03-07T09:49:36;41.87;;;31.77;;
13584;SDS011;6863;48.402;9.994;2024-03-07T09:52:03;43.23;;;32.63;;
13584;SDS011;6863;48.402;9.994;2024-03-07T09:54:33;41.03;;;31.40;;
13584;SDS011;6863;48.402;9.994;2024-03-07T09:56:59;44.00;;;33.20;;
13584;SDS011;6863;48.402;9.994;2024-03-07T09:59:28;45.43;;;33.10;;
13584;SDS011;6863;48.402;9.994;2024-03-07T10:01:55;42.27;;;31.50;;
13584;SDS011;6863;48.402;9.994;2024-03-07T10:04:29;43.10;;;32.57;;
13584;SDS011;6863;48.402;9.994;2024-03-07T10:07:10;46.20;;;32.97;;
13584;SDS011;6863;48.402;9.994;2024-03-07T10:09:38;46.00;;;34.33;;
13584;SDS011;6863;48.402;9.994;2024-03-07T10:12:05;48.57;;;34.03;;
13584;SDS011;6863;48.402;9.994;2024-03-07T10:14:37;46.00;;;33.70;;
13584;SDS011;6863;48.402;9.994;2024-03-07T10:17:15;47.50;;;33.43;;
13584;SDS011;6863;48.402;9.994;2024-03-07T10:19:47;44.67;;;34.17;;
13584;SDS011;6863;48.402;9.994;2024-03-07T10:22:15;45.47;;;33.47;;
13584;SDS011;6863;48.402;9.994;2024-03-07T10:24:52;44.33;;;32.50;;
13584;SDS011;6863;48.402;9.994;2024-03-07T10:27:19;41.90;;;32.77;;
13584;SDS011;6863;48.402;9.994;2024-03-07T10:29:48;45.10;;;32.17;;
13584;SDS011;6863;48.402;9.994;2024-03-07T10:32:19;46.03;;;34.33;;
13584;SDS011;6863;48.402;9.994;2024-03-07T10:34:45;48.47;;;33.53;;
13584;SDS011;6863;48.402;9.994;2024-03-07T10:37:12;46.47;;;34.47;;
13584;SDS011;6863;48.402;9.994;2024-03-07T10:39:42;43.37;;;33.77;;
13584;SDS011;6863;48.402;9.994;2024-03-07T10:42:09;44.67;;;32.87;;
13584;SDS011;6863;48.402;9.994;2024-03-07T10:44:43;43.53;;;32.77;;
13584;SDS011;6863;48.402;9.994;2024-03-07T10:47:20;43.33;;;32.90;;
13584;SDS011;6863;48.402;9.994;2024-03-07T10:56:05;45.03;;;34.67;;
13584;SDS011;6863;48.402;9.994;2024-03-07T11:04:49;46.40;;;33.53;;
13584;SDS011;6863;48.402;9.994;2024-03-07T11:07:17;42.13;;;33.30;;
13584;SDS011;6863;48.402;9.994;2024-03-07T11:09:48;42.83;;;33.90;;
13584;SDS011;6863;48.402;9.994;2024-03-07T11:12:19;39.67;;;32.60;;
13584;SDS011;6863;48.402;9.994;2024-03-07T11:14:45;38.47;;;33.00;;
13584;SDS011;6863;48.402;9.994;2024-03-07T11:17:31;45.50;;;34.73;;
13584;SDS011;6863;48.402;9.994;2024-03-07T11:20:40;42.67;;;34.17;;
13584;SDS011;6863;48.402;9.994;2024-03-07T11:22:58;40.13;;;32.63;;
13584;SDS011;6863;48.402;9.994;2024-03-07T11:25:35;42.97;;;35.27;;
13584;SDS011;6863;48.402;9.994;2024-03-07T11:28:04;40.10;;;33.73;;
13584;SDS011;6863;48.402;9.994;2024-03-07T11:30:33;44.50;;;35.03;;
13584;SDS011;6863;48.402;9.994;2024-03-07T11:33:01;40.30;;;34.80;;
13584;SDS011;6863;48.402;9.994;2024-03-07T11:35:33;44.20;;;34.33;;
13584;SDS011;6863;48.402;9.994;2024-03-07T11:38:02;40.27;;;35.67;;
13584;SDS011;6863;48.402;9.994;2024-03-07T11:42:56;41.07;;;33.73;;
13584;SDS011;6863;48.402;9.994;2024-03-07T11:45:24;36.80;;;31.80;;
13584;SDS011;6863;48.402;9.994;2024-03-07T11:47:53;40.53;;;33.47;;
13584;SDS011;6863;48.402;9.994;2024-03-07T11:50:25;37.97;;;31.40;;
13584;SDS011;6863;48.402;9.994;2024-03-07T11:52:54;39.43;;;32.47;;
13584;SDS011;6863;48.402;9.994;2024-03-07T11:55:21;48.47;;;36.00;;
13584;SDS011;6863;48.402;9.994;2024-03-07T11:57:47;40.20;;;32.03;;
13584;SDS011;6863;48.402;9.994;2024-03-07T12:00:15;38.93;;;33.53;;
13584;SDS011;6863;48.402;9.994;2024-03-07T12:02:43;38.97;;;32.40;;
13584;SDS011;6863;48.402;9.994;2024-03-07T12:05:09;39.90;;;32.83;;
13584;SDS011;6863;48.402;9.994;2024-03-07T12:07:35;39.23;;;30.10;;
13584;SDS011;6863;48.402;9.994;2024-03-07T12:10:01;37.70;;;30.93;;
13584;SDS011;6863;48.402;9.994;2024-03-07T12:12:31;43.73;;;32.67;;
13584;SDS011;6863;48.402;9.994;2024-03-07T12:14:58;41.60;;;33.20;;
13584;SDS011;6863;48.402;9.994;2024-03-07T12:17:24;42.60;;;33.53;;
13584;SDS011;6863;48.402;9.994;2024-03-07T12:19:50;45.00;;;35.07;;
13584;SDS011;6863;48.402;9.994;2024-03-07T12:22:21;42.77;;;33.33;;
13584;SDS011;6863;48.402;9.994;2024-03-07T12:25:02;40.40;;;31.70;;
13584;SDS011;6863;48.402;9.994;2024-03-07T12:27:28;42.77;;;32.00;;
13584;SDS011;6863;48.402;9.994;2024-03-07T12:29:57;42.20;;;31.97;;
13584;SDS011;6863;48.402;9.994;2024-03-07T12:32:22;42.23;;;32.53;;
13584;SDS011;6863;48.402;9.994;2024-03-07T12:34:49;46.00;;;34.47;;
13584;SDS011;6863;48.402;9.994;2024-03-07T12:37:17;42.30;;;31.20;;
13584;SDS011;6863;48.402;9.994;2024-03-07T12:39:53;40.53;;;31.40;;
13584;SDS011;6863;48.402;9.994;2024-03-07T12:42:26;39.47;;;30.53;;
13584;SDS011;6863;48.402;9.994;2024-03-07T12:44:53;40.13;;;30.80;;
13584;SDS011;6863;48.402;9.994;2024-03-07T12:47:19;40.20;;;31.63;;
13584;SDS011;6863;48.402;9.994;2024-03-07T12:49:45;41.27;;;30.83;;
13584;SDS011;6863;48.402;9.994;2024-03-07T12:52:11;38.20;;;28.77;;
13584;SDS011;6863;48.402;9.994;2024-03-07T12:54:40;40.27;;;29.70;;
13584;SDS011;6863;48.402;9.994;2024-03-07T12:57:09;38.37;;;29.00;;
13584;SDS011;6863;48.402;9.994;2024-03-07T12:59:37;35.00;;;27.23;;
13584;SDS011;6863;48.402;9.994;2024-03-07T13:02:05;35.33;;;28.33;;
13584;SDS011;6863;48.402;9.994;2024-03-07T13:04:34;39.73;;;29.53;;
13584;SDS011;6863;48.402;9.994;2024-03-07T13:07:02;40.87;;;31.00;;
13584;SDS011;6863;48.402;9.994;2024-03-07T13:09:32;38.80;;;29.87;;
13584;SDS011;6863;48.402;9.994;2024-03-07T13:11:58;40.50;;;31.03;;
13584;SDS011;6863;48.402;9.994;2024-03-07T13:14:28;42.43;;;30.97;;
13584;SDS011;6863;48.402;9.994;2024-03-07T13:16:57;43.30;;;31.93;;
13584;SDS011;6863;48.402;9.994;2024-03-07T13:19:27;41.10;;;31.70;;
13584;SDS011;6863;48.402;9.994;2024-03-07T13:21:53;43.87;;;31.93;;
13584;SDS011;6863;48.402;9.994;2024-03-07T13:24:19;44.13;;;32.20;;
13584;SDS011;6863;48.402;9.994;2024-03-07T13:26:46;40.77;;;31.57;;
13584;SDS011;6863;48.402;9.994;2024-03-07T13:29:15;41.23;;;31.53;;
13584;SDS011;6863;48.402;9.994;2024-03-07T13:31:42;40.13;;;30.87;;
13584;SDS011;6863;48.402;9.994;2024-03-07T13:34:09;46.07;;;33.67;;
13584;SDS011;6863;48.402;9.994;2024-03-07T13:36:38;39.03;;;30.20;;
13584;SDS011;6863;48.402;9.994;2024-03-07T13:39:08;40.47;;;29.97;;
13584;SDS011;6863;48.402;9.994;2024-03-07T13:41:36;41.33;;;30.60;;
13584;SDS011;6863;48.402;9.994;2024-03-07T13:44:13;40.33;;;31.87;;
13584;SDS011;6863;48.402;9.994;2024-03-07T13:46:39;38.67;;;31.03;;
13584;SDS011;6863;48.402;9.994;2024-03-07T13:49:05;38.97;;;30.37;;
13584;SDS011;6863;48.402;9.994;2024-03-07T13:51:38;41.07;;;29.90;;
13584;SDS011;6863;48.402;9.994;2024-03-07T13:54:15;41.43;;;31.87;;
13584;SDS011;6863;48.402;9.994;2024-03-07T14:00:20;36.97;;;28.70;;
13584;SDS011;6863;48.402;9.994;2024-03-07T14:11:26;32.80;;;27.97;;
13584;SDS011;6863;48.402;9.994;2024-03-07T14:14:29;34.80;;;27.97;;
13584;SDS011;6863;48.402;9.994;2024-03-07T14:31:17;28.53;;;24.93;;
13584;SDS011;6863;48.402;9.994;2024-03-07T14:33:54;28.50;;;23.73;;
13584;SDS011;6863;48.402;9.994;2024-03-07T14:39:22;29.73;;;22.93;;
13584;SDS011;6863;48.402;9.994;2024-03-07T14:41:58;25.70;;;22.67;;
13584;SDS011;6863;48.402;9.994;2024-03-07T14:44:25;26.40;;;23.00;;
13584;SDS011;6863;48.402;9.994;2024-03-07T14:46:53;24.80;;;22.20;;
13584;SDS011;6863;48.402;9.994;2024-03-07T14:49:24;28.27;;;22.97;;
13584;SDS011;6863;48.402;9.994;2024-03-07T14:51:50;23.57;;;20.53;;
13584;SDS011;6863;48.402;9.994;2024-03-07T14:54:18;24.97;;;22.07;;
13584;SDS011;6863;48.402;9.994;2024-03-07T14:56:45;23.90;;;19.97;;
13584;SDS011;6863;48.402;9.994;2024-03-07T14:59:11;22.40;;;19.13;;
13584;SDS011;6863;48.402;9.994;2024-03-07T15:01:37;22.73;;;19.67;;
13584;SDS011;6863;48.402;9.994;2024-03-07T15:04:03;23.73;;;19.77;;
13584;SDS011;6863;48.402;9.994;2024-03-07T15:06:32;25.33;;;20.70;;
13584;SDS011;6863;48.402;9.994;2024-03-07T15:09:01;22.63;;;19.03;;
13584;SDS011;6863;48.402;9.994;2024-03-07T15:13:55;23.20;;;19.30;;
13584;SDS011;6863;48.402;9.994;2024-03-07T15:16:21;21.97;;;18.53;;
13584;SDS011;6863;48.402;9.994;2024-03-07T15:18:49;43.80;;;29.60;;
13584;SDS011;6863;48.402;9.994;2024-03-07T15:21:15;27.57;;;20.00;;
13584;SDS011;6863;48.402;9.994;2024-03-07T15:23:42;21.77;;;19.33;;
13584;SDS011;6863;48.402;9.994;2024-03-07T15:26:08;21.50;;;18.47;;